Time;durP1;ratioP1;P1;durP2;ratioP2;P2;SDS_P1;SDS_P2;PMS_P1;PMS_P2;Temp;Humidity;BMP_temperature;BMP_pressure;BME280_temperature;BME280_humidity;BME280_pressure;Samples;Min_cycle;Max_cycle;Signal;HPM_P1;HPM_P2
2022/10/17 00:00:10;;;;;;;42.37;24.37;;;;;;;;;;6168828;28;20031;-76
2022/10/17 00:03:10;;;;;;;47.33;25.97;;;;;;;;;;6168527;28;20027;-76
2022/10/17 00:06:12;;;;;;;40.87;23.40;;;;;;;;;;6171868;28;20034;-76
2022/10/17 00:09:12;;;;;;;53.55;27.02;;;;;;;;;;6179264;28;20342;-76
2022/10/17 00:12:12;;;;;;;59.03;27.53;;;;;;;;;;6170323;28;20030;-76
2022/10/17 00:15:16;;;;;;;43.00;26.23;;;;;;;;;;6172614;28;20027;-75
2022/10/17 00:18:17;;;;;;;46.95;29.48;;;;;;;;;;6172585;28;20110;-76
2022/10/17 00:21:18;;;;;;;59.83;31.63;;;;;;;;;;6167268;28;20027;-76
2022/10/17 00:24:18;;;;;;;57.93;29.37;;;;;;;;;;6169291;28;20343;-76
2022/10/17 00:27:18;;;;;;;51.13;29.17;;;;;;;;;;6171710;28;20030;-76
2022/10/17 00:30:18;;;;;;;51.70;28.63;;;;;;;;;;6154816;28;20011;-77
2022/10/17 00:33:18;;;;;;;41.10;25.95;;;;;;;;;;6179466;28;20126;-77
2022/10/17 00:36:20;;;;;;;37.40;21.98;;;;;;;;;;6171259;28;20376;-77
2022/10/17 00:39:21;;;;;;;40.03;23.15;;;;;;;;;;6164721;28;20015;-76
2022/10/17 00:42:23;;;;;;;44.70;22.83;;;;;;;;;;6165729;28;20030;-76
2022/10/17 00:45:25;;;;;;;37.22;22.40;;;;;;;;;;6173026;28;20372;-76
2022/10/17 00:48:25;;;;;;;37.47;22.40;;;;;;;;;;6152210;28;20022;-76
2022/10/17 00:51:30;;;;;;;37.03;23.47;;;;;;;;;;6170385;28;20023;-76
2022/10/17 00:54:36;;;;;;;39.10;23.70;;;;;;;;;;6188489;28;20253;-76
2022/10/17 00:57:37;;;;;;;44.67;24.58;;;;;;;;;;6177855;28;20340;-77
2022/10/17 01:00:37;;;;;;;45.25;27.77;;;;;;;;;;6177097;28;20033;-77
2022/10/17 01:03:37;;;;;;;46.63;27.45;;;;;;;;;;6178052;28;20023;-77
2022/10/17 01:06:38;;;;;;;45.37;25.10;;;;;;;;;;6176769;28;20019;-77
2022/10/17 01:09:38;;;;;;;42.97;23.73;;;;;;;;;;6170799;28;20023;-76
2022/10/17 01:12:46;;;;;;;40.85;23.73;;;;;;;;;;6176244;28;20007;-76
2022/10/17 01:15:53;;;;;;;36.35;22.35;;;;;;;;;;6158582;28;20030;-77
2022/10/17 01:19:12;;;;;;;39.10;24.50;;;;;;;;;;6176642;28;20027;-77
2022/10/17 01:22:21;;;;;;;42.08;24.65;;;;;;;;;;6176595;28;20054;-77
2022/10/17 01:25:30;;;;;;;39.55;23.45;;;;;;;;;;6174019;28;20027;-77
2022/10/17 01:28:37;;;;;;;43.53;25.35;;;;;;;;;;6170815;28;20049;-77
2022/10/17 01:31:45;;;;;;;44.45;25.27;;;;;;;;;;6177102;28;20423;-77
2022/10/17 01:34:54;;;;;;;42.97;24.65;;;;;;;;;;6175202;28;20378;-77
2022/10/17 01:37:58;;;;;;;40.50;22.35;;;;;;;;;;6166889;28;20066;-77
2022/10/17 01:40:58;;;;;;;40.80;23.92;;;;;;;;;;6175013;28;20033;-77
2022/10/17 01:44:02;;;;;;;42.50;25.95;;;;;;;;;;6174841;28;20031;-77
2022/10/17 01:47:06;;;;;;;46.78;26.17;;;;;;;;;;6174103;28;20065;-77
2022/10/17 01:50:09;;;;;;;42.05;25.60;;;;;;;;;;6172706;28;20019;-77
2022/10/17 01:53:13;;;;;;;57.90;32.30;;;;;;;;;;6170366;28;20127;-77
2022/10/17 01:56:14;;;;;;;63.25;34.30;;;;;;;;;;6175988;28;20019;-77
2022/10/17 01:59:40;;;;;;;69.15;40.42;;;;;;;;;;6189141;28;20019;-77
2022/10/17 02:02:42;;;;;;;58.35;34.33;;;;;;;;;;6185953;28;20027;-77
2022/10/17 02:05:43;;;;;;;47.47;26.92;;;;;;;;;;6182966;28;20031;-77
2022/10/17 02:08:45;;;;;;;33.10;20.33;;;;;;;;;;6175935;28;20029;-77
2022/10/17 02:12:04;;;;;;;38.03;21.73;;;;;;;;;;6171159;28;20149;-77
2022/10/17 02:15:04;;;;;;;40.45;21.05;;;;;;;;;;6167758;28;20464;-77
2022/10/17 02:18:23;;;;;;;55.83;31.38;;;;;;;;;;6172834;28;20474;-77
2022/10/17 02:21:30;;;;;;;58.65;34.75;;;;;;;;;;6171243;28;20398;-77
2022/10/17 02:24:43;;;;;;;67.57;37.50;;;;;;;;;;6174728;28;20025;-75
2022/10/17 02:27:43;;;;;;;65.97;33.80;;;;;;;;;;6174006;28;20105;-75
2022/10/17 02:31:06;;;;;;;57.38;33.35;;;;;;;;;;6146222;28;20031;-75
2022/10/17 02:34:20;;;;;;;50.92;28.88;;;;;;;;;;6168715;28;20480;-76
2022/10/17 02:37:24;;;;;;;51.22;28.50;;;;;;;;;;6169274;28;20019;-76
2022/10/17 02:40:25;;;;;;;42.70;25.95;;;;;;;;;;6178037;28;20019;-77
2022/10/17 02:43:25;;;;;;;46.38;26.50;;;;;;;;;;6173735;28;20151;-77
2022/10/17 02:46:27;;;;;;;48.90;27.98;;;;;;;;;;6175079;28;20447;-77
2022/10/17 02:49:29;;;;;;;44.50;26.87;;;;;;;;;;6173965;28;20102;-77
2022/10/17 02:52:32;;;;;;;43.63;24.98;;;;;;;;;;6173329;28;20266;-77
2022/10/17 02:55:35;;;;;;;46.63;24.75;;;;;;;;;;6156854;28;20019;-77
2022/10/17 02:58:36;;;;;;;44.85;25.70;;;;;;;;;;6174600;28;20045;-77
2022/10/17 03:01:37;;;;;;;42.33;25.63;;;;;;;;;;6165030;28;20467;-77
2022/10/17 03:04:37;;;;;;;45.17;23.92;;;;;;;;;;6166137;28;20037;-77
2022/10/17 03:07:37;;;;;;;43.37;27.37;;;;;;;;;;6172649;28;20054;-77
2022/10/17 03:10:37;;;;;;;44.95;24.50;;;;;;;;;;6173690;28;20022;-77
2022/10/17 03:13:38;;;;;;;39.37;24.10;;;;;;;;;;6191637;28;20022;-77
2022/10/17 03:16:38;;;;;;;44.05;24.67;;;;;;;;;;6183790;28;20736;-77
2022/10/17 03:19:38;;;;;;;41.57;22.73;;;;;;;;;;6173956;28;20015;-77
2022/10/17 03:22:38;;;;;;;40.30;23.03;;;;;;;;;;6173887;28;20014;-77
2022/10/17 03:25:38;;;;;;;39.25;22.98;;;;;;;;;;6163303;28;20386;-77
2022/10/17 03:28:39;;;;;;;40.37;21.20;;;;;;;;;;6147114;28;20254;-77
2022/10/17 03:31:39;;;;;;;41.90;22.63;;;;;;;;;;6171043;28;20286;-76
2022/10/17 03:34:39;;;;;;;40.78;23.92;;;;;;;;;;6173168;28;20353;-78
2022/10/17 03:37:39;;;;;;;40.90;23.27;;;;;;;;;;6178084;28;20010;-77
2022/10/17 03:40:39;;;;;;;41.43;24.07;;;;;;;;;;6173073;28;20105;-77
2022/10/17 03:43:39;;;;;;;42.58;23.02;;;;;;;;;;6172390;28;20258;-76
2022/10/17 03:46:40;;;;;;;35.03;21.83;;;;;;;;;;6173487;28;20137;-76
2022/10/17 03:49:40;;;;;;;39.43;23.57;;;;;;;;;;6186181;28;20014;-76
2022/10/17 03:52:40;;;;;;;34.97;21.13;;;;;;;;;;6176980;28;20265;-76
2022/10/17 03:55:40;;;;;;;38.33;22.20;;;;;;;;;;6195084;28;20025;-77
2022/10/17 03:58:40;;;;;;;39.03;23.50;;;;;;;;;;6173218;28;20030;-77
2022/10/17 04:01:41;;;;;;;37.88;22.55;;;;;;;;;;6163237;28;20026;-76
2022/10/17 04:04:41;;;;;;;35.50;21.98;;;;;;;;;;6171311;28;20379;-77
2022/10/17 04:07:41;;;;;;;35.10;20.30;;;;;;;;;;6166275;28;20065;-77
2022/10/17 04:10:41;;;;;;;60.50;25.73;;;;;;;;;;6173900;28;20282;-77
2022/10/17 04:13:42;;;;;;;47.87;25.30;;;;;;;;;;6170160;28;20047;-77
2022/10/17 04:16:42;;;;;;;42.92;22.52;;;;;;;;;;6172460;28;20026;-77
2022/10/17 04:19:42;;;;;;;40.08;20.88;;;;;;;;;;6154813;28;20029;-77
2022/10/17 04:22:43;;;;;;;40.30;22.03;;;;;;;;;;6172621;28;20038;-77
2022/10/17 04:25:43;;;;;;;35.14;19.62;;;;;;;;;;6187649;28;20010;-77
2022/10/17 04:28:43;;;;;;;36.73;20.40;;;;;;;;;;6181643;28;20428;-77
2022/10/17 04:31:43;;;;;;;39.45;22.33;;;;;;;;;;6168952;28;20271;-77
2022/10/17 04:34:47;;;;;;;37.97;19.57;;;;;;;;;;6157490;28;20057;-77
2022/10/17 04:37:47;;;;;;;36.15;21.85;;;;;;;;;;6154783;28;20081;-77
2022/10/17 04:40:47;;;;;;;42.22;21.50;;;;;;;;;;6178657;28;20427;-76
2022/10/17 04:43:47;;;;;;;36.17;21.92;;;;;;;;;;6169203;28;20019;-76
2022/10/17 04:46:47;;;;;;;34.53;20.92;;;;;;;;;;6174988;28;20268;-75
2022/10/17 04:49:47;;;;;;;39.47;21.65;;;;;;;;;;6171155;28;20029;-75
2022/10/17 04:52:48;;;;;;;34.28;21.33;;;;;;;;;;6173172;28;20029;-74
2022/10/17 04:55:48;;;;;;;38.17;22.52;;;;;;;;;;6171965;28;20324;-77
2022/10/17 04:58:49;;;;;;;36.45;20.27;;;;;;;;;;6170430;28;20431;-75
2022/10/17 05:01:49;;;;;;;34.10;20.02;;;;;;;;;;6170706;28;20131;-76
2022/10/17 05:04:49;;;;;;;35.22;19.55;;;;;;;;;;6164703;28;20071;-76
2022/10/17 05:07:49;;;;;;;31.70;17.97;;;;;;;;;;6168709;28;20026;-75
2022/10/17 05:10:49;;;;;;;34.80;18.83;;;;;;;;;;6169696;28;20035;-75
2022/10/17 05:13:51;;;;;;;34.55;21.08;;;;;;;;;;6171785;28;20057;-76
2022/10/17 05:16:51;;;;;;;31.80;17.73;;;;;;;;;;6171675;28;20027;-74
2022/10/17 05:19:51;;;;;;;31.93;17.40;;;;;;;;;;6168794;28;20514;-74
2022/10/17 05:22:51;;;;;;;35.06;18.80;;;;;;;;;;6171917;28;20471;-75
2022/10/17 05:25:54;;;;;;;33.27;19.37;;;;;;;;;;6171333;28;20015;-75
2022/10/17 05:28:55;;;;;;;36.72;19.35;;;;;;;;;;6170674;28;20757;-75
2022/10/17 05:31:55;;;;;;;41.38;20.58;;;;;;;;;;6170444;28;20030;-76
2022/10/17 05:34:55;;;;;;;30.60;17.83;;;;;;;;;;6160033;28;20240;-75
2022/10/17 05:37:56;;;;;;;31.00;18.65;;;;;;;;;;6169230;28;20353;-75
2022/10/17 05:40:57;;;;;;;30.17;17.02;;;;;;;;;;6160973;28;20114;-76
2022/10/17 05:43:57;;;;;;;32.92;17.85;;;;;;;;;;6166673;28;20027;-75
2022/10/17 05:46:57;;;;;;;29.73;17.88;;;;;;;;;;6168350;28;20034;-75
2022/10/17 05:49:58;;;;;;;24.67;17.27;;;;;;;;;;6173367;28;20290;-75
2022/10/17 05:52:58;;;;;;;29.03;18.07;;;;;;;;;;6168313;28;20262;-75
2022/10/17 05:55:59;;;;;;;29.88;20.35;;;;;;;;;;6174488;28;20019;-75
2022/10/17 05:58:59;;;;;;;34.70;19.43;;;;;;;;;;6167437;28;20074;-75
2022/10/17 06:01:59;;;;;;;26.93;20.13;;;;;;;;;;6174470;28;20019;-76
2022/10/17 06:04:59;;;;;;;26.58;16.85;;;;;;;;;;6172413;28;20117;-76
2022/10/17 06:08:00;;;;;;;27.05;15.20;;;;;;;;;;6168604;28;20031;-76
2022/10/17 06:11:00;;;;;;;26.90;16.33;;;;;;;;;;6166026;28;20462;-76
2022/10/17 06:14:01;;;;;;;26.63;16.83;;;;;;;;;;6169224;28;20023;-76
2022/10/17 06:17:01;;;;;;;24.93;15.00;;;;;;;;;;6174665;28;20081;-76
2022/10/17 06:20:01;;;;;;;27.53;17.23;;;;;;;;;;6175247;28;20021;-76
2022/10/17 06:23:02;;;;;;;28.80;18.70;;;;;;;;;;6174308;28;20035;-76
2022/10/17 06:26:03;;;;;;;29.37;18.10;;;;;;;;;;6167707;28;20050;-76
2022/10/17 06:29:03;;;;;;;27.20;17.52;;;;;;;;;;6170990;28;20113;-76
2022/10/17 06:32:03;;;;;;;25.17;16.83;;;;;;;;;;6156817;28;20038;-76
2022/10/17 06:35:04;;;;;;;24.27;15.90;;;;;;;;;;6164310;28;20031;-76
2022/10/17 06:38:04;;;;;;;26.57;18.97;;;;;;;;;;6174347;28;20410;-76
2022/10/17 06:41:07;;;;;;;123.63;74.13;;;;;;;;;;6174752;28;20480;-76
2022/10/17 06:44:09;;;;;;;142.18;79.05;;;;;;;;;;6173799;28;20383;-76
2022/10/17 06:47:10;;;;;;;101.20;63.22;;;;;;;;;;6183466;28;20039;-76
2022/10/17 06:50:10;;;;;;;52.27;32.63;;;;;;;;;;6166156;28;20321;-76
2022/10/17 06:53:10;;;;;;;36.25;23.02;;;;;;;;;;6166151;28;20024;-76
2022/10/17 06:56:10;;;;;;;26.30;19.53;;;;;;;;;;6169591;28;20445;-75
2022/10/17 06:59:11;;;;;;;27.03;17.00;;;;;;;;;;6169264;28;20062;-75
2022/10/17 07:02:11;;;;;;;27.43;19.37;;;;;;;;;;6166727;28;20023;-75
2022/10/17 07:05:11;;;;;;;31.60;21.33;;;;;;;;;;6165219;28;20054;-75
2022/10/17 07:08:11;;;;;;;35.37;21.47;;;;;;;;;;6171027;28;20088;-75
2022/10/17 07:11:13;;;;;;;28.38;18.92;;;;;;;;;;6167705;28;20027;-75
2022/10/17 07:14:13;;;;;;;33.08;21.63;;;;;;;;;;6163031;28;20027;-76
2022/10/17 07:17:13;;;;;;;34.40;22.75;;;;;;;;;;6171932;28;20050;-75
2022/10/17 07:20:14;;;;;;;38.83;25.37;;;;;;;;;;6170617;28;20150;-75
2022/10/17 07:23:14;;;;;;;39.90;24.73;;;;;;;;;;6161340;28;20333;-75
2022/10/17 07:26:15;;;;;;;32.13;21.00;;;;;;;;;;6166545;28;20025;-76
2022/10/17 07:29:15;;;;;;;30.75;20.23;;;;;;;;;;6169316;28;20106;-76
2022/10/17 07:32:15;;;;;;;34.60;22.23;;;;;;;;;;6170825;28;20034;-76
2022/10/17 07:35:15;;;;;;;28.60;20.38;;;;;;;;;;6170319;28;20021;-75
2022/10/17 07:38:16;;;;;;;29.05;16.38;;;;;;;;;;6164198;28;20073;-75
2022/10/17 07:41:18;;;;;;;22.45;14.75;;;;;;;;;;6158302;28;20035;-76
2022/10/17 07:44:18;;;;;;;22.85;15.93;;;;;;;;;;6183672;28;20038;-76
2022/10/17 07:47:18;;;;;;;19.63;13.87;;;;;;;;;;6174352;28;20077;-75
2022/10/17 07:50:18;;;;;;;20.20;13.93;;;;;;;;;;6184558;28;20030;-76
2022/10/17 07:53:19;;;;;;;19.25;14.77;;;;;;;;;;6172155;28;20022;-76
2022/10/17 07:56:23;;;;;;;20.23;13.23;;;;;;;;;;6171739;28;20090;-75
2022/10/17 07:59:23;;;;;;;20.40;13.95;;;;;;;;;;6184889;28;20022;-75
2022/10/17 08:02:24;;;;;;;21.13;13.27;;;;;;;;;;6170225;28;20487;-75
2022/10/17 08:05:24;;;;;;;;;;;;;;;;;;6183953;28;20014;-75
2022/10/17 08:08:25;;;;;;;19.08;12.10;;;;;;;;;;6174863;28;19910;-75
2022/10/17 08:11:25;;;;;;;22.23;13.55;;;;;;;;;;6161558;28;20022;-76
2022/10/17 08:14:25;;;;;;;21.40;13.67;;;;;;;;;;6171945;28;20030;-76
2022/10/17 08:17:26;;;;;;;;;;;;;;;;;;6189825;28;20454;-76
2022/10/17 08:20:26;;;;;;;24.77;18.95;;;;;;;;;;6187423;28;20294;-75
2022/10/17 08:23:27;;;;;;;19.90;13.93;;;;;;;;;;6170626;28;20073;-75
2022/10/17 08:26:27;;;;;;;;;;;;;;;;;;6178574;28;20026;-75
2022/10/17 08:29:27;;;;;;;21.83;14.85;;;;;;;;;;6178626;28;20381;-75
2022/10/17 08:32:28;;;;;;;16.87;13.90;;;;;;;;;;6169467;28;20026;-75
2022/10/17 08:35:28;;;;;;;16.98;12.35;;;;;;;;;;6163796;28;20038;-76
2022/10/17 08:38:29;;;;;;;18.80;11.70;;;;;;;;;;6175155;28;20019;-75
2022/10/17 08:41:29;;;;;;;17.08;11.15;;;;;;;;;;6179984;28;20376;-76
2022/10/17 08:44:38;;;;;;;20.75;13.27;;;;;;;;;;6171011;28;20057;-76
2022/10/17 08:47:44;;;;;;;20.48;13.75;;;;;;;;;;6158103;28;20390;-75
2022/10/17 08:50:47;;;;;;;20.10;11.10;;;;;;;;;;6166885;28;20027;-75
2022/10/17 08:53:48;;;;;;;16.02;10.93;;;;;;;;;;6171500;28;20081;-76
2022/10/17 08:56:49;;;;;;;20.63;11.52;;;;;;;;;;6169463;28;20019;-76
2022/10/17 08:59:49;;;;;;;;;;;;;;;;;;6184609;28;20019;-76
2022/10/17 09:02:57;;;;;;;18.47;11.60;;;;;;;;;;6170874;28;19913;-75
2022/10/17 09:06:06;;;;;;;16.15;11.52;;;;;;;;;;6171843;28;20023;-75
2022/10/17 09:09:14;;;;;;;17.38;12.02;;;;;;;;;;6181226;28;20058;-75
2022/10/17 09:12:23;;;;;;;16.48;12.02;;;;;;;;;;6180826;28;20022;-75
2022/10/17 09:15:29;;;;;;;16.88;11.70;;;;;;;;;;6176366;28;20030;-75
2022/10/17 09:18:32;;;;;;;18.58;11.85;;;;;;;;;;6158102;28;20049;-75
2022/10/17 09:21:41;;;;;;;19.00;12.30;;;;;;;;;;6175964;28;20475;-75
2022/10/17 09:24:43;;;;;;;18.13;11.07;;;;;;;;;;6167665;28;20038;-75
2022/10/17 09:27:51;;;;;;;18.42;11.45;;;;;;;;;;6153919;28;20106;-75
2022/10/17 09:31:02;;;;;;;18.73;10.45;;;;;;;;;;6174537;28;20516;-76
2022/10/17 09:34:02;;;;;;;15.57;12.18;;;;;;;;;;6173979;28;20019;-75
2022/10/17 09:37:02;;;;;;;;;;;;;;;;;;6174865;28;20501;-76
2022/10/17 09:40:05;;;;;;;24.77;11.35;;;;;;;;;;6175521;28;19906;-75
2022/10/17 09:43:06;;;;;;;15.25;9.98;;;;;;;;;;6157720;28;20042;-75
2022/10/17 09:46:07;;;;;;;;;;;;;;;;;;6157917;28;20545;-75
2022/10/17 09:49:17;;;;;;;17.57;9.97;;;;;;;;;;6174344;28;19906;-75
2022/10/17 09:52:26;;;;;;;23.53;12.03;;;;;;;;;;6156715;28;20019;-75
2022/10/17 09:55:37;;;;;;;13.57;9.32;;;;;;;;;;6175591;28;20274;-75
2022/10/17 09:58:45;;;;;;;14.88;8.60;;;;;;;;;;6175148;28;20013;-75
2022/10/17 10:01:45;;;;;;;14.90;8.88;;;;;;;;;;6159713;28;20053;-74
2022/10/17 10:04:45;;;;;;;;;;;;;;;;;;6181429;28;20022;-74
2022/10/17 10:08:00;;;;;;;14.57;10.48;;;;;;;;;;6182720;28;19914;-74
2022/10/17 10:11:05;;;;;;;18.80;8.73;;;;;;;;;;6171510;28;20023;-74
2022/10/17 10:14:10;;;;;;;15.38;8.35;;;;;;;;;;6170742;28;20019;-74
2022/10/17 10:17:29;;;;;;;12.40;7.03;;;;;;;;;;6163534;28;20552;-74
2022/10/17 10:20:33;;;;;;;12.02;7.72;;;;;;;;;;6171076;28;20030;-76
2022/10/17 10:23:38;;;;;;;17.92;8.85;;;;;;;;;;6167563;28;20018;-75
2022/10/17 10:26:46;;;;;;;16.13;8.60;;;;;;;;;;6161653;28;20464;-75
2022/10/17 10:29:50;;;;;;;12.18;7.63;;;;;;;;;;6165914;28;20487;-76
2022/10/17 10:32:50;;;;;;;11.65;7.95;;;;;;;;;;6164715;28;20085;-76
2022/10/17 10:35:52;;;;;;;12.00;7.60;;;;;;;;;;6172100;28;20382;-75
2022/10/17 10:38:55;;;;;;;13.43;7.82;;;;;;;;;;6152784;28;20537;-75
2022/10/17 10:41:55;;;;;;;12.07;7.18;;;;;;;;;;6154502;28;20487;-75
2022/10/17 10:45:01;;;;;;;12.77;7.55;;;;;;;;;;6156736;28;20062;-75
2022/10/17 10:48:03;;;;;;;12.27;6.93;;;;;;;;;;6161021;28;20026;-75
2022/10/17 10:51:07;;;;;;;14.77;9.05;;;;;;;;;;6164401;28;20418;-75
2022/10/17 10:54:11;;;;;;;13.73;7.43;;;;;;;;;;6171731;28;20034;-75
2022/10/17 10:57:18;;;;;;;12.07;7.13;;;;;;;;;;6173383;28;20011;-75
2022/10/17 11:00:21;;;;;;;14.77;7.47;;;;;;;;;;6168666;28;20033;-75
2022/10/17 11:03:32;;;;;;;9.50;6.18;;;;;;;;;;6155521;28;20029;-75
2022/10/17 11:06:37;;;;;;;10.85;7.25;;;;;;;;;;6154419;28;20019;-76
2022/10/17 11:09:55;;;;;;;14.85;7.80;;;;;;;;;;6166560;28;20467;-76
2022/10/17 11:12:59;;;;;;;15.90;9.18;;;;;;;;;;6161834;28;20156;-76
2022/10/17 11:16:20;;;;;;;13.23;7.63;;;;;;;;;;6171832;28;20058;-75
2022/10/17 11:19:27;;;;;;;10.50;6.72;;;;;;;;;;6172146;28;20386;-75
2022/10/17 11:22:32;;;;;;;12.63;7.82;;;;;;;;;;6163156;28;20022;-75
2022/10/17 11:25:34;;;;;;;18.30;7.55;;;;;;;;;;6155820;28;20022;-75
2022/10/17 11:28:35;;;;;;;14.68;8.02;;;;;;;;;;6169272;28;20467;-76
2022/10/17 11:31:37;;;;;;;15.33;7.10;;;;;;;;;;6155332;28;20028;-75
2022/10/17 11:34:45;;;;;;;12.25;6.95;;;;;;;;;;6169120;28;20121;-75
2022/10/17 11:37:48;;;;;;;10.35;6.80;;;;;;;;;;6172503;28;20029;-75
2022/10/17 11:40:50;;;;;;;12.73;7.35;;;;;;;;;;6154461;28;20022;-75
2022/10/17 11:43:55;;;;;;;14.00;7.18;;;;;;;;;;6171634;28;20462;-75
2022/10/17 11:47:00;;;;;;;13.00;7.45;;;;;;;;;;6171239;28;20062;-77
2022/10/17 11:50:24;;;;;;;12.95;7.38;;;;;;;;;;6170276;28;20109;-75
2022/10/17 11:53:26;;;;;;;13.13;6.57;;;;;;;;;;6172448;28;20570;-75
2022/10/17 11:56:39;;;;;;;12.77;6.70;;;;;;;;;;6166178;28;20014;-75
2022/10/17 11:59:52;;;;;;;13.40;7.47;;;;;;;;;;6159164;28;20105;-76
2022/10/17 12:03:04;;;;;;;12.38;6.82;;;;;;;;;;6161714;28;20374;-75
2022/10/17 12:06:22;;;;;;;12.38;6.70;;;;;;;;;;6156638;28;20376;-75
2022/10/17 12:09:28;;;;;;;11.95;7.82;;;;;;;;;;6154094;28;20047;-76
2022/10/17 12:12:29;;;;;;;16.30;7.85;;;;;;;;;;6155086;28;20031;-75
2022/10/17 12:15:32;;;;;;;12.63;7.03;;;;;;;;;;6167981;28;20407;-75
2022/10/17 12:18:32;;;;;;;15.32;8.07;;;;;;;;;;6161722;28;20023;-77
2022/10/17 12:21:32;;;;;;;;;;;;;;;;;;6158243;28;20042;-75
2022/10/17 12:24:39;;;;;;;16.45;8.18;;;;;;;;;;6165106;28;19910;-75
2022/10/17 12:27:47;;;;;;;13.95;8.02;;;;;;;;;;6161170;28;20065;-76
2022/10/17 12:30:48;;;;;;;13.23;7.45;;;;;;;;;;6151120;28;20027;-76
2022/10/17 12:33:48;;;;;;;14.32;7.65;;;;;;;;;;6161229;28;20003;-75
2022/10/17 12:36:49;;;;;;;;;;;;;;;;;;6155009;28;20386;-76
2022/10/17 12:39:49;;;;;;;16.20;8.57;;;;;;;;;;6163202;28;19921;-75
2022/10/17 12:42:49;;;;;;;;;;;;;;;;;;6170649;28;20277;-75
2022/10/17 12:45:57;;;;;;;15.85;8.82;;;;;;;;;;6169933;28;20314;-75
2022/10/17 12:48:58;;;;;;;12.05;8.07;;;;;;;;;;6169284;28;20026;-75
2022/10/17 12:51:58;;;;;;;;;;;;;;;;;;6175289;28;20149;-75
2022/10/17 12:55:08;;;;;;;12.52;7.45;;;;;;;;;;6166788;28;19917;-75
2022/10/17 12:58:11;;;;;;;12.98;8.20;;;;;;;;;;6170231;28;20028;-75
2022/10/17 13:01:24;;;;;;;15.85;7.43;;;;;;;;;;6169530;28;20066;-75
2022/10/17 13:04:25;;;;;;;14.60;8.07;;;;;;;;;;6169379;28;20026;-75
2022/10/17 13:07:25;;;;;;;14.02;8.38;;;;;;;;;;6166374;28;20102;-75
2022/10/17 13:10:26;;;;;;;;;;;;;;;;;;6168852;28;20386;-75
2022/10/17 13:13:36;;;;;;;16.50;8.70;;;;;;;;;;6169828;28;20305;-75
2022/10/17 13:16:37;;;;;;;12.53;7.87;;;;;;;;;;6165769;28;20055;-75
2022/10/17 13:19:38;;;;;;;11.85;7.68;;;;;;;;;;6169971;28;20019;-76
2022/10/17 13:22:38;;;;;;;;;;;;;;;;;;6168466;28;20037;-75
2022/10/17 13:25:38;;;;;;;11.57;7.30;;;;;;;;;;6161615;28;20029;-75
2022/10/17 13:28:38;;;;;;;12.77;8.37;;;;;;;;;;6154530;28;20030;-75
2022/10/17 13:31:40;;;;;;;17.50;8.93;;;;;;;;;;6171450;28;20169;-75
2022/10/17 13:34:41;;;;;;;16.40;8.27;;;;;;;;;;6177832;28;20121;-75
2022/10/17 13:37:42;;;;;;;15.13;8.50;;;;;;;;;;6186100;28;20438;-75
2022/10/17 13:40:43;;;;;;;14.05;8.50;;;;;;;;;;6157311;28;20054;-75
2022/10/17 13:43:43;;;;;;;13.95;7.90;;;;;;;;;;6175611;28;20022;-75
2022/10/17 13:46:44;;;;;;;15.13;8.07;;;;;;;;;;6174469;28;20047;-74
2022/10/17 13:49:44;;;;;;;13.35;8.20;;;;;;;;;;6185347;28;20301;-75
2022/10/17 13:52:44;;;;;;;15.17;8.30;;;;;;;;;;6170995;28;20023;-75
2022/10/17 13:55:53;;;;;;;14.17;7.50;;;;;;;;;;6183202;28;20018;-75
2022/10/17 13:58:58;;;;;;;14.20;7.50;;;;;;;;;;6171775;28;20034;-75
2022/10/17 14:02:00;;;;;;;14.50;7.88;;;;;;;;;;6159486;28;20648;-75
2022/10/17 14:05:02;;;;;;;15.50;8.45;;;;;;;;;;6165294;28;20019;-74
2022/10/17 14:08:03;;;;;;;12.32;7.90;;;;;;;;;;6173573;28;20023;-74
2022/10/17 14:11:12;;;;;;;12.65;7.38;;;;;;;;;;6172195;28;20030;-76
2022/10/17 14:14:20;;;;;;;11.32;7.60;;;;;;;;;;6151449;28;20501;-75
2022/10/17 14:17:22;;;;;;;15.00;8.23;;;;;;;;;;6165424;28;20019;-75
2022/10/17 14:20:23;;;;;;;15.15;7.65;;;;;;;;;;6165285;28;20387;-75
2022/10/17 14:23:49;;;;;;;13.73;7.93;;;;;;;;;;6158802;28;20019;-75
2022/10/17 14:26:51;;;;;;;11.43;7.10;;;;;;;;;;6145728;28;20565;-75
2022/10/17 14:29:52;;;;;;;17.08;8.43;;;;;;;;;;6163918;28;20049;-76
2022/10/17 14:32:52;;;;;;;;;;;;;;;;;;6150173;28;20018;-75
2022/10/17 14:35:54;;;;;;;14.35;7.90;;;;;;;;;;6172967;28;19949;-75
2022/10/17 14:38:54;;;;;;;;;;;;;;;;;;6165575;28;20106;-75
2022/10/17 14:41:55;;;;;;;21.35;12.88;;;;;;;;;;6161625;28;19915;-75
2022/10/17 14:45:05;;;;;;;47.58;24.75;;;;;;;;;;6166866;28;20053;-74
2022/10/17 14:48:09;;;;;;;32.53;18.30;;;;;;;;;;6176566;28;20038;-74
2022/10/17 14:51:16;;;;;;;28.58;13.98;;;;;;;;;;6174777;28;20118;-74
2022/10/17 14:54:26;;;;;;;38.90;19.77;;;;;;;;;;6173370;28;20030;-74
2022/10/17 14:57:26;;;;;;;37.35;16.85;;;;;;;;;;6176895;28;20014;-75
2022/10/17 15:00:27;;;;;;;35.27;14.63;;;;;;;;;;6179977;28;20026;-75
2022/10/17 15:03:27;;;;;;;56.20;25.73;;;;;;;;;;6174715;28;20067;-74
2022/10/17 15:06:28;;;;;;;32.67;18.47;;;;;;;;;;6167929;28;20312;-74
2022/10/17 15:09:29;;;;;;;43.40;21.83;;;;;;;;;;6171172;28;20046;-74
2022/10/17 15:12:31;;;;;;;76.13;34.28;;;;;;;;;;6155737;28;20060;-75
2022/10/17 15:15:31;;;;;;;;;;;;;;;;;;6174337;28;20011;-75
2022/10/17 15:18:32;;;;;;;43.43;22.00;;;;;;;;;;6172504;28;19973;-76
2022/10/17 15:21:33;;;;;;;57.17;26.08;;;;;;;;;;6171904;28;20046;-75
2022/10/17 15:24:33;;;;;;;37.27;19.33;;;;;;;;;;6155570;28;20081;-74
2022/10/17 15:27:33;;;;;;;35.23;18.57;;;;;;;;;;6172315;28;20023;-74
2022/10/17 15:30:35;;;;;;;23.70;11.33;;;;;;;;;;6164446;28;20458;-74
2022/10/17 15:33:35;;;;;;;;;;;;;;;;;;6170095;28;20490;-74
2022/10/17 15:36:39;;;;;;;24.43;13.03;;;;;;;;;;6173931;28;20327;-75
2022/10/17 15:39:39;;;;;;;23.05;12.75;;;;;;;;;;6163374;28;20027;-75
2022/10/17 15:42:39;;;;;;;19.20;11.27;;;;;;;;;;6162990;28;20487;-75
2022/10/17 15:45:40;;;;;;;18.50;11.27;;;;;;;;;;6157556;28;20509;-74
2022/10/17 15:48:40;;;;;;;22.13;12.17;;;;;;;;;;6170753;28;20074;-75
2022/10/17 15:51:40;;;;;;;26.03;15.33;;;;;;;;;;6169447;28;20031;-74
2022/10/17 15:54:40;;;;;;;49.77;29.30;;;;;;;;;;6156699;28;20015;-74
2022/10/17 15:57:41;;;;;;;136.07;76.70;;;;;;;;;;6164033;28;20019;-75
2022/10/17 16:00:42;;;;;;;89.40;53.08;;;;;;;;;;6160854;28;20484;-75
2022/10/17 16:03:45;;;;;;;33.37;21.97;;;;;;;;;;6160759;28;20054;-75
2022/10/17 16:06:46;;;;;;;27.23;15.30;;;;;;;;;;6169963;28;20098;-74
2022/10/17 16:09:46;;;;;;;24.00;11.97;;;;;;;;;;6169418;28;20035;-73
2022/10/17 16:12:48;;;;;;;21.63;13.00;;;;;;;;;;6167178;28;20225;-74
2022/10/17 16:15:49;;;;;;;21.00;12.27;;;;;;;;;;6164970;28;20018;-74
2022/10/17 16:18:49;;;;;;;18.57;11.57;;;;;;;;;;6157853;28;20019;-74
2022/10/17 16:21:49;;;;;;;24.27;12.20;;;;;;;;;;6149634;28;20033;-74
2022/10/17 16:24:56;;;;;;;19.57;11.83;;;;;;;;;;6157978;28;20421;-73
2022/10/17 16:27:58;;;;;;;20.67;12.43;;;;;;;;;;6158983;28;20094;-76
2022/10/17 16:30:58;;;;;;;19.92;12.95;;;;;;;;;;6145250;28;20043;-74
2022/10/17 16:33:59;;;;;;;22.13;13.70;;;;;;;;;;6153711;28;20386;-76
2022/10/17 16:36:59;;;;;;;29.13;16.40;;;;;;;;;;6160135;28;20035;-75
2022/10/17 16:40:00;;;;;;;28.33;14.83;;;;;;;;;;6163526;28;20023;-75
2022/10/17 16:43:00;;;;;;;26.47;16.03;;;;;;;;;;6158673;28;20019;-75
2022/10/17 16:46:03;;;;;;;29.27;17.57;;;;;;;;;;6166980;28;20055;-74
2022/10/17 16:49:04;;;;;;;38.95;24.02;;;;;;;;;;6161691;28;20696;-75
2022/10/17 16:52:04;;;;;;;30.37;19.77;;;;;;;;;;6138527;28;20050;-74
2022/10/17 16:55:05;;;;;;;33.57;18.03;;;;;;;;;;6162501;28;20033;-74
2022/10/17 16:58:05;;;;;;;34.20;20.07;;;;;;;;;;6168356;28;20027;-74
2022/10/17 17:01:07;;;;;;;38.97;22.07;;;;;;;;;;6163476;28;20023;-74
2022/10/17 17:04:08;;;;;;;44.28;26.25;;;;;;;;;;6166353;28;20031;-75
2022/10/17 17:07:08;;;;;;;39.40;22.27;;;;;;;;;;6137994;28;20054;-75
2022/10/17 17:10:08;;;;;;;43.83;26.63;;;;;;;;;;6165997;28;20053;-74
2022/10/17 17:13:09;;;;;;;44.17;25.23;;;;;;;;;;6164459;28;20073;-75
2022/10/17 17:16:10;;;;;;;37.13;23.97;;;;;;;;;;6165938;28;20026;-74
2022/10/17 17:19:12;;;;;;;28.98;18.05;;;;;;;;;;6149099;28;20031;-74
2022/10/17 17:22:12;;;;;;;;;;;;;;;;;;6161795;28;20019;-75
2022/10/17 17:25:13;;;;;;;49.35;28.13;;;;;;;;;;6167014;28;19917;-75
2022/10/17 17:28:13;;;;;;;52.30;28.93;;;;;;;;;;6157573;28;20033;-75
2022/10/17 17:31:15;;;;;;;45.70;26.73;;;;;;;;;;6160002;28;20055;-75
2022/10/17 17:34:15;;;;;;;50.20;26.20;;;;;;;;;;6168597;28;20110;-74
2022/10/17 17:37:16;;;;;;;38.03;23.53;;;;;;;;;;6171646;28;20023;-75
2022/10/17 17:40:16;;;;;;;46.67;27.83;;;;;;;;;;6161768;28;20065;-75
2022/10/17 17:43:16;;;;;;;42.33;22.97;;;;;;;;;;6163090;28;20183;-75
2022/10/17 17:46:18;;;;;;;40.17;23.53;;;;;;;;;;6153047;28;20416;-75
2022/10/17 17:49:19;;;;;;;37.63;23.17;;;;;;;;;;6174914;28;20023;-74
2022/10/17 17:52:19;;;;;;;49.77;27.77;;;;;;;;;;6156020;28;20034;-74